Time;durP1;ratioP1;P1;durP2;ratioP2;P2;SDS_P1;SDS_P2;PMS_P1;PMS_P2;Temp;Humidity;BMP_temperature;BMP_pressure;BME280_temperature;BME280_humidity;BME280_pressure;Samples;Min_cycle;Max_cycle;Signal;HPM_P1;HPM_P2
2024/04/23 00:01:54;;;;;;;;;;;;;;;20.97;31.26;98302.63;5334683;26;1822;-74
2024/04/23 00:04:20;;;;;;;;;;;;;;;21.72;30.71;98309.63;5319176;26;1050;-75
2024/04/23 00:06:55;;;;;;;;;;;;;;;22.09;30.36;98314.81;5279115;27;1208;-75
2024/04/23 00:09:20;;;;;;;;;;;;;;;22.22;30.37;98309.28;5222422;27;1123;-75
2024/04/23 00:11:46;;;;;;;;;;;;;;;21.69;30.90;98304.81;5283647;26;1158;-74
2024/04/23 00:14:12;;;;;;;;;;;;;;;21.36;31.33;98304.72;5318444;26;1153;-76
2024/04/23 00:16:37;;;;;;;;;;;;;;;21.42;30.84;98302.97;5318751;26;994;-74
2024/04/23 00:19:03;;;;;;;;;;;;;;;21.45;30.81;98301.28;5318571;26;1316;-74
2024/04/23 00:21:28;;;;;;;;;;;;;;;21.28;31.07;98304.03;5347508;26;1862;-75
2024/04/23 00:23:54;;;;;;;;;;;;;;;21.43;30.81;98303.78;5318639;26;977;-74
2024/04/23 00:26:19;;;;;;;;;;;;;;;21.47;30.72;98298.84;5318437;26;1116;-75
2024/04/23 00:28:45;;;;;;;;;;;;;;;21.38;30.98;98295.78;5318729;26;927;-75
2024/04/23 00:31:11;;;;;;;;;;;;;;;21.43;30.67;98300.94;5278616;27;1599;-74
2024/04/23 00:33:36;;;;;;;;;;;;;;;21.57;30.57;98297.81;5222493;27;1030;-74
2024/04/23 00:36:02;;;;;;;;;;;;;;;21.40;30.72;98298.97;5250596;27;1217;-74
2024/04/23 00:38:27;;;;;;;;;;;;;;;21.22;31.10;98300.13;5331842;26;1173;-75
2024/04/23 00:40:53;;;;;;;;;;;;;;;21.36;30.87;98303.94;5347537;26;862;-74
2024/04/23 00:43:18;;;;;;;;;;;;;;;21.41;30.72;98294.94;5318337;26;1837;-76
2024/04/23 00:45:45;;;;;;;;;;;;;;;21.22;30.93;98291.63;5347216;26;1159;-74
2024/04/23 00:48:11;;;;;;;;;;;;;;;21.14;30.98;98293.03;5216819;27;1078;-75
2024/04/23 00:50:37;;;;;;;;;;;;;;;21.31;30.83;98313.72;5189681;27;1136;-75
2024/04/23 00:53:02;;;;;;;;;;;;;;;21.14;31.00;98310.00;5217105;27;970;-74
2024/04/23 00:55:28;;;;;;;;;;;;;;;21.21;30.64;98309.84;5189904;27;1141;-74
2024/04/23 00:57:54;;;;;;;;;;;;;;;21.20;30.76;98308.25;5244865;27;1004;-75
2024/04/23 01:00:19;;;;;;;;;;;;;;;21.25;30.47;98316.25;5216747;27;1164;-75
2024/04/23 01:02:45;;;;;;;;;;;;;;;21.26;30.48;98315.00;5217192;27;1926;-74
2024/04/23 01:05:10;;;;;;;;;;;;;;;21.28;30.41;98318.19;5216851;27;1636;-75
2024/04/23 01:07:36;;;;;;;;;;;;;;;21.19;30.51;98305.84;5249259;27;1239;-74
2024/04/23 01:10:02;;;;;;;;;;;;;;;21.20;30.28;98296.94;5312263;27;1000;-75
2024/04/23 01:12:27;;;;;;;;;;;;;;;21.26;30.23;98311.38;5283839;27;1002;-75
2024/04/23 01:14:53;;;;;;;;;;;;;;;21.70;30.40;98300.75;5283903;27;989;-75
2024/04/23 01:17:18;;;;;;;;;;;;;;;21.95;30.66;98300.19;5255667;27;1174;-75
2024/04/23 01:19:45;;;;;;;;;;;;;;;22.07;30.64;98296.66;5227747;27;1246;-75
2024/04/23 01:22:42;;;;;;;;;;;;;;;21.91;30.68;98282.47;5282138;27;1857;-75
2024/04/23 01:25:14;;;;;;;;;;;;;;;21.50;31.09;98269.63;5263963;27;990;-75
2024/04/23 01:27:40;;;;;;;;;;;;;;;21.24;31.17;98274.19;5312209;27;1139;-75
2024/04/23 01:30:06;;;;;;;;;;;;;;;21.25;31.02;98273.78;5311822;27;1155;-75
2024/04/23 01:32:32;;;;;;;;;;;;;;;21.37;30.84;98268.72;5312028;27;963;-75
2024/04/23 01:34:58;;;;;;;;;;;;;;;21.63;30.46;98269.78;5311754;27;1044;-74
2024/04/23 01:37:24;;;;;;;;;;;;;;;21.17;31.07;98268.69;5312141;27;1067;-75
2024/04/23 01:39:49;;;;;;;;;;;;;;;21.40;30.74;98259.34;5312164;27;949;-75
2024/04/23 01:42:16;;;;;;;;;;;;;;;21.24;31.02;98258.03;5283108;27;1829;-74
2024/04/23 01:44:41;;;;;;;;;;;;;;;21.65;30.38;98244.63;5283460;27;923;-75
2024/04/23 01:47:07;;;;;;;;;;;;;;;21.46;30.63;98246.28;5311829;27;1459;-75
2024/04/23 01:49:32;;;;;;;;;;;;;;;21.29;31.08;98249.00;5312284;27;1047;-74
2024/04/23 01:51:58;;;;;;;;;;;;;;;21.38;31.05;98244.84;5311927;27;1024;-74
2024/04/23 01:54:23;;;;;;;;;;;;;;;21.33;31.04;98243.31;5306322;27;1168;-74
2024/04/23 01:56:49;;;;;;;;;;;;;;;21.27;31.16;98240.19;5306067;27;961;-75
2024/04/23 01:59:15;;;;;;;;;;;;;;;21.37;30.92;98237.59;5306285;27;1027;-75
2024/04/23 02:01:42;;;;;;;;;;;;;;;21.38;30.79;98227.84;5340118;26;1854;-75
2024/04/23 02:04:07;;;;;;;;;;;;;;;21.23;31.12;98216.81;5352098;26;982;-75
2024/04/23 02:06:33;;;;;;;;;;;;;;;21.05;31.11;98234.19;5381344;26;1045;-75
2024/04/23 02:08:59;;;;;;;;;;;;;;;21.17;30.92;98241.19;5351731;26;1094;-74
2024/04/23 02:11:25;;;;;;;;;;;;;;;21.15;30.94;98238.03;5323323;26;1162;-75
2024/04/23 02:13:51;;;;;;;;;;;;;;;21.14;30.81;98225.13;5294463;26;1165;-75
2024/04/23 02:16:17;;;;;;;;;;;;;;;21.14;30.91;98225.13;5352679;26;1034;-74
2024/04/23 02:18:42;;;;;;;;;;;;;;;21.34;30.44;98222.25;5294471;26;1134;-74
2024/04/23 02:21:08;;;;;;;;;;;;;;;21.10;30.70;98218.72;5351470;26;1852;-75
2024/04/23 02:23:33;;;;;;;;;;;;;;;21.22;30.41;98212.38;5380616;26;948;-74
2024/04/23 02:25:59;;;;;;;;;;;;;;;21.32;30.25;98224.75;5349233;26;1211;-74
2024/04/23 02:28:25;;;;;;;;;;;;;;;21.31;30.72;98221.13;5419279;26;987;-75
2024/04/23 02:30:50;;;;;;;;;;;;;;;21.84;30.42;98233.25;5387925;26;933;-75
2024/04/23 02:33:16;;;;;;;;;;;;;;;22.04;30.46;98240.88;5360808;26;969;-75
2024/04/23 02:35:41;;;;;;;;;;;;;;;21.77;30.95;98233.44;5362086;26;984;-74
2024/04/23 02:38:07;;;;;;;;;;;;;;;21.55;31.03;98232.31;5361805;26;1278;-75
2024/04/23 02:40:32;;;;;;;;;;;;;;;21.47;31.01;98233.72;5391216;26;921;-75
2024/04/23 02:42:58;;;;;;;;;;;;;;;21.36;31.10;98236.00;5361819;26;1841;-75
2024/04/23 02:45:23;;;;;;;;;;;;;;;21.47;30.61;98236.56;5422481;26;1009;-76
2024/04/23 02:47:49;;;;;;;;;;;;;;;21.40;30.93;98239.53;5361765;26;886;-75
2024/04/23 02:50:15;;;;;;;;;;;;;;;21.27;31.09;98245.84;5331695;26;1174;-75
2024/04/23 02:52:40;;;;;;;;;;;;;;;21.47;30.78;98242.22;5390938;26;984;-75
2024/04/23 02:55:06;;;;;;;;;;;;;;;21.42;30.97;98256.88;5390664;26;1136;-74
2024/04/23 02:57:32;;;;;;;;;;;;;;;21.43;31.01;98252.81;5391283;26;1059;-75
2024/04/23 02:59:57;;;;;;;;;;;;;;;21.35;31.11;98240.03;5422271;26;1042;-74
2024/04/23 03:02:23;;;;;;;;;;;;;;;21.35;31.12;98234.38;5347890;26;1829;-75
2024/04/23 03:04:48;;;;;;;;;;;;;;;21.39;31.20;98246.44;5217880;27;986;-76
2024/04/23 03:07:14;;;;;;;;;;;;;;;21.23;31.43;98245.09;5217874;27;910;-75
2024/04/23 03:09:40;;;;;;;;;;;;;;;21.49;31.02;98245.41;5218056;27;1098;-75
2024/04/23 03:12:05;;;;;;;;;;;;;;;21.50;31.00;98238.50;5218310;27;972;-75
2024/04/23 03:14:31;;;;;;;;;;;;;;;21.46;30.99;98223.63;5245616;27;1050;-75
2024/04/23 03:16:56;;;;;;;;;;;;;;;21.18;31.48;98220.16;5245679;27;946;-74
2024/04/23 03:19:22;;;;;;;;;;;;;;;21.24;31.44;98229.75;5245848;27;1001;-74
2024/04/23 03:21:51;;;;;;;;;;;;;;;21.58;30.90;98234.28;5217960;27;1914;-76
2024/04/23 03:24:17;;;;;;;;;;;;;;;21.36;31.37;98236.78;5218148;27;966;-76
2024/04/23 03:26:42;;;;;;;;;;;;;;;21.36;31.14;98230.34;5218085;27;1134;-75
2024/04/23 03:29:08;;;;;;;;;;;;;;;21.46;31.21;98246.28;5218324;27;1096;-75
2024/04/23 03:31:33;;;;;;;;;;;;;;;21.54;31.14;98250.53;5245697;27;915;-76
2024/04/23 03:33:59;;;;;;;;;;;;;;;21.20;31.59;98251.66;5267098;27;1244;-75
2024/04/23 03:36:25;;;;;;;;;;;;;;;21.26;31.39;98255.56;5300825;26;1118;-74
2024/04/23 03:38:50;;;;;;;;;;;;;;;21.61;30.82;98264.56;5347762;26;931;-74
2024/04/23 03:41:16;;;;;;;;;;;;;;;21.31;31.20;98277.72;5318697;26;1851;-75
2024/04/23 03:43:41;;;;;;;;;;;;;;;21.40;31.18;98281.97;5317707;26;942;-74
2024/04/23 03:46:07;;;;;;;;;;;;;;;21.50;30.67;98281.78;5290796;26;953;-74
2024/04/23 03:48:32;;;;;;;;;;;;;;;21.58;30.75;98305.06;5348051;26;983;-74
2024/04/23 03:50:58;;;;;;;;;;;;;;;21.60;30.63;98313.91;5348400;26;1084;-74
2024/04/23 03:53:23;;;;;;;;;;;;;;;21.54;30.77;98310.00;5318946;26;1202;-74
2024/04/23 03:55:49;;;;;;;;;;;;;;;21.38;30.71;98312.78;5290537;26;1252;-74
2024/04/23 03:58:15;;;;;;;;;;;;;;;21.57;30.42;98314.81;5290225;26;1200;-74
2024/04/23 04:00:40;;;;;;;;;;;;;;;21.46;30.35;98323.53;5347922;26;1053;-74
2024/04/23 04:06:06;;;;;;;;;;;;;;;21.51;30.45;98353.34;5347881;26;1015;-74
2024/04/23 04:08:35;;;;;;;;;;;;;;;21.35;30.64;98358.91;5387146;26;1202;-74
2024/04/23 04:11:01;;;;;;;;;;;;;;;21.52;30.27;98352.91;5359949;26;1118;-74
2024/04/23 04:13:26;;;;;;;;;;;;;;;21.63;30.12;98352.69;5388903;26;694;-74
2024/04/23 04:15:52;;;;;;;;;;;;;;;21.36;30.37;98340.72;5359743;26;1398;-74
2024/04/23 04:18:18;;;;;;;;;;;;;;;21.45;30.36;98326.75;5359735;26;1241;-75
2024/04/23 04:20:43;;;;;;;;;;;;;;;21.36;30.46;98303.94;5360157;26;786;-74
2024/04/23 04:23:09;;;;;;;;;;;;;;;21.41;30.29;98311.91;5359553;26;1829;-75
2024/04/23 04:25:34;;;;;;;;;;;;;;;21.28;30.48;98309.69;5317406;26;1091;-75
2024/04/23 04:28:00;;;;;;;;;;;;;;;21.31;30.38;98308.84;5289611;26;1481;-75
2024/04/23 04:30:26;;;;;;;;;;;;;;;21.27;30.48;98302.44;5283428;27;1278;-75
2024/04/23 04:32:51;;;;;;;;;;;;;;;21.52;29.97;98301.94;5312228;27;783;-74
2024/04/23 04:35:17;;;;;;;;;;;;;;;21.29;30.32;98294.28;5311729;27;1507;-74
2024/04/23 04:37:42;;;;;;;;;;;;;;;21.45;30.14;98301.28;5283142;27;1663;-74
2024/04/23 04:40:08;;;;;;;;;;;;;;;21.48;29.80;98306.09;5312142;27;748;-74
2024/04/23 04:42:34;;;;;;;;;;;;;;;21.26;30.33;98295.19;5255159;27;1850;-74
2024/04/23 04:44:59;;;;;;;;;;;;;;;21.59;29.84;98281.16;5283596;27;723;-74
2024/04/23 04:47:25;;;;;;;;;;;;;;;21.23;30.34;98293.22;5311955;27;813;-75
2024/04/23 04:49:50;;;;;;;;;;;;;;;21.37;30.13;98294.19;5311981;27;760;-74
2024/04/23 04:52:16;;;;;;;;;;;;;;;21.27;30.25;98296.78;5312312;27;869;-74
2024/04/23 04:54:42;;;;;;;;;;;;;;;21.18;30.28;98288.06;5310927;27;1142;-74
2024/04/23 04:57:07;;;;;;;;;;;;;;;21.34;30.03;98290.19;5332294;26;911;-74
2024/04/23 04:59:33;;;;;;;;;;;;;;;21.37;30.01;98291.38;5351913;26;754;-74
2024/04/23 05:01:58;;;;;;;;;;;;;;;21.45;29.98;98287.13;5351870;26;1856;-74
2024/04/23 05:04:24;;;;;;;;;;;;;;;21.12;30.51;98284.16;5323048;26;735;-75
2024/04/23 05:06:49;;;;;;;;;;;;;;;21.40;30.03;98290.47;5322918;26;1166;-75
2024/04/23 05:09:15;;;;;;;;;;;;;;;21.52;29.72;98281.34;5352126;26;805;-74
2024/04/23 05:11:43;;;;;;;;;;;;;;;21.41;29.90;98283.59;5381012;26;730;-74
2024/04/23 05:14:09;;;;;;;;;;;;;;;21.29;29.93;98280.16;5351775;26;1085;-74
2024/04/23 05:16:35;;;;;;;;;;;;;;;21.16;30.23;98267.91;5311331;27;854;-74
2024/04/23 05:19:01;;;;;;;;;;;;;;;21.17;30.18;98269.50;5282692;27;1605;-75
2024/04/23 05:21:27;;;;;;;;;;;;;;;21.41;29.66;98263.78;5311193;27;1860;-75
2024/04/23 05:23:53;;;;;;;;;;;;;;;21.35;29.54;98257.03;5311432;27;768;-74
2024/04/23 05:26:18;;;;;;;;;;;;;;;21.06;30.27;98257.59;5311389;27;1005;-74
2024/04/23 05:28:44;;;;;;;;;;;;;;;21.21;29.95;98253.25;5282980;27;1225;-74
2024/04/23 05:33:54;;;;;;;;;;;;;;;21.21;29.86;98247.59;5317261;26;1134;-74
2024/04/23 05:36:22;;;;;;;;;;;;;;;21.42;29.61;98265.38;5317096;26;772;-74
2024/04/23 05:38:51;;;;;;;;;;;;;;;21.28;29.61;98270.06;5316718;26;1142;-74
2024/04/23 05:41:17;;;;;;;;;;;;;;;21.25;29.75;98276.63;5317007;26;1818;-75
2024/04/23 05:43:43;;;;;;;;;;;;;;;21.12;29.98;98278.50;5317014;26;780;-74
2024/04/23 05:46:08;;;;;;;;;;;;;;;21.70;29.98;98267.56;5345698;26;738;-74
2024/04/23 05:48:53;;;;;;;;;;;;;;;22.06;30.05;98278.06;5383882;26;786;-75
2024/04/23 05:51:55;;;;;;;;;;;;;;;22.12;30.71;98270.66;5419141;26;735;-74
2024/04/23 05:54:59;;;;;;;;;;;;;;;21.74;31.16;98268.28;5419122;26;749;-75
2024/04/23 05:57:43;;;;;;;;;;;;;;;21.47;31.07;98276.19;5419064;26;669;-75
2024/04/23 06:00:08;;;;;;;;;;;;;;;21.54;30.77;98271.16;5358151;26;1147;-74
2024/04/23 06:02:34;;;;;;;;;;;;;;;21.50;30.85;98264.78;5387585;26;1818;-74
2024/04/23 06:05:00;;;;;;;;;;;;;;;21.65;30.54;98265.25;5387676;26;726;-75
2024/04/23 06:07:25;;;;;;;;;;;;;;;21.50;30.89;98276.13;5386483;26;764;-74
2024/04/23 06:09:51;;;;;;;;;;;;;;;21.45;30.89;98285.13;5387778;26;718;-74
2024/04/23 06:12:16;;;;;;;;;;;;;;;21.43;31.03;98292.44;5358438;26;719;-74
2024/04/23 06:14:43;;;;;;;;;;;;;;;21.47;31.07;98302.47;5357885;26;1106;-74
2024/04/23 06:17:22;;;;;;;;;;;;;;;21.54;30.76;98304.34;5387106;26;1139;-75
2024/04/23 06:19:51;;;;;;;;;;;;;;;21.47;30.83;98293.16;5387221;26;749;-74
2024/04/23 06:22:24;;;;;;;;;;;;;;;21.51;30.65;98305.22;5358861;26;1822;-75
2024/04/23 06:24:50;;;;;;;;;;;;;;;21.30;31.01;98306.47;5329370;26;1142;-74
2024/04/23 06:27:22;;;;;;;;;;;;;;;21.17;31.42;98294.97;5358617;26;1032;-75
2024/04/23 06:29:54;;;;;;;;;;;;;;;21.39;31.04;98294.53;5310696;27;773;-74
2024/04/23 06:32:20;;;;;;;;;;;;;;;21.33;30.92;98283.72;5310644;27;785;-74
2024/04/23 06:34:46;;;;;;;;;;;;;;;21.21;31.26;98277.91;5282118;27;858;-74
2024/04/23 06:37:11;;;;;;;;;;;;;;;21.02;31.04;98248.38;5310680;27;851;-74
2024/04/23 06:39:37;;;;;;;;;;;;;;;21.40;30.71;98296.13;5310274;27;895;-74
2024/04/23 06:42:03;;;;;;;;;;;;;;;21.56;30.43;98307.53;5310645;27;1851;-74
2024/04/23 06:44:28;;;;;;;;;;;;;;;21.29;30.82;98305.63;5275907;27;853;-74
2024/04/23 06:46:54;;;;;;;;;;;;;;;21.64;29.98;98308.97;5247846;27;1264;-75
2024/04/23 06:49:20;;;;;;;;;;;;;;;21.16;30.68;98313.19;5241908;27;869;-75
2024/04/23 06:51:45;;;;;;;;;;;;;;;21.17;30.74;98314.78;5275905;27;1194;-74
2024/04/23 06:54:11;;;;;;;;;;;;;;;21.13;30.85;98302.72;5247627;27;844;-75
2024/04/23 06:56:37;;;;;;;;;;;;;;;21.31;30.64;98286.22;5247631;27;1497;-74
2024/04/23 06:59:02;;;;;;;;;;;;;;;21.20;30.45;98288.44;5247343;27;1598;-74
2024/04/23 07:01:29;;;;;;;;;;;;;;;21.21;30.41;98287.22;5249227;27;1855;-74
2024/04/23 07:03:54;;;;;;;;;;;;;;;21.33;30.27;98282.94;5241834;27;737;-74
2024/04/23 07:06:20;;;;;;;;;;;;;;;21.28;30.20;98278.56;5242139;27;766;-74
2024/04/23 07:08:47;;;;;;;;;;;;;;;21.44;30.13;98289.16;5241776;27;724;-74
2024/04/23 07:11:13;;;;;;;;;;;;;;;21.33;30.09;98295.06;5241663;27;783;-75
2024/04/23 07:13:38;;;;;;;;;;;;;;;21.32;29.71;98310.44;5202785;27;1265;-74
2024/04/23 07:16:05;;;;;;;;;;;;;;;21.29;30.17;98316.94;5232943;27;803;-74
2024/04/23 07:18:30;;;;;;;;;;;;;;;21.30;30.07;98307.28;5215263;27;834;-75
2024/04/23 07:20:56;;;;;;;;;;;;;;;21.18;30.36;98316.38;5242303;27;839;-74
2024/04/23 07:23:21;;;;;;;;;;;;;;;21.20;30.15;98307.47;5278876;27;1830;-74
2024/04/23 07:25:50;;;;;;;;;;;;;;;21.43;29.90;98298.09;5278576;27;1174;-74
2024/04/23 07:28:16;;;;;;;;;;;;;;;21.29;29.78;98293.50;5222926;27;725;-74
2024/04/23 07:30:42;;;;;;;;;;;;;;;21.05;30.18;98295.63;5209442;27;1181;-75
2024/04/23 07:33:10;;;;;;;;;;;;;;;21.30;30.06;98272.50;5245111;27;823;-74
2024/04/23 07:35:37;;;;;;;;;;;;;;;20.91;30.43;98256.28;5217361;27;735;-74
2024/04/23 07:38:07;;;;;;;;;;;;;;;21.31;29.90;98229.59;5245001;27;1107;-74
2024/04/23 07:40:33;;;;;;;;;;;;;;;21.20;30.00;98223.34;5183813;27;787;-76
2024/04/23 07:42:58;;;;;;;;;;;;;;;20.97;30.17;98217.78;5211678;27;1831;-74
2024/04/23 07:45:24;;;;;;;;;;;;;;;21.27;30.46;98217.53;5211710;27;866;-75
2024/04/23 07:47:49;;;;;;;;;;;;;;;21.74;30.52;98228.63;5211671;27;683;-75
2024/04/23 07:50:15;;;;;;;;;;;;;;;22.09;30.30;98226.19;5220794;27;863;-74
2024/04/23 07:52:42;;;;;;;;;;;;;;;22.03;30.99;98230.78;5250357;27;2357;-75
2024/04/23 07:55:07;;;;;;;;;;;;;;;21.94;30.82;98230.59;5278558;27;931;-75
2024/04/23 07:57:33;;;;;;;;;;;;;;;21.50;31.53;98235.66;5278451;27;746;-74
2024/04/23 07:59:58;;;;;;;;;;;;;;;21.51;31.09;98249.41;5250190;27;1555;-74
2024/04/23 08:02:25;;;;;;;;;;;;;;;21.57;30.78;98246.84;5276441;27;1826;-75
2024/04/23 08:04:51;;;;;;;;;;;;;;;21.59;30.54;98253.66;5312645;27;818;-75
2024/04/23 08:07:17;;;;;;;;;;;;;;;21.44;30.75;98243.09;5247513;27;1796;-78
2024/04/23 08:09:43;;;;;;;;;;;;;;;21.48;30.83;98249.47;5279312;27;941;-77
2024/04/23 08:12:08;;;;;;;;;;;;;;;21.30;31.28;98245.00;5279333;27;1194;-75
2024/04/23 08:14:34;;;;;;;;;;;;;;;21.35;30.99;98231.53;5278080;27;912;-77
2024/04/23 08:16:59;;;;;;;;;;;;;;;21.32;30.99;98236.06;5278314;27;918;-76
2024/04/23 08:19:25;;;;;;;;;;;;;;;21.36;30.84;98236.00;5250323;27;1052;-76
2024/04/23 08:21:51;;;;;;;;;;;;;;;21.35;31.01;98211.72;5250421;27;1848;-76
2024/04/23 08:24:16;;;;;;;;;;;;;;;21.44;30.73;98203.44;5249930;27;1198;-76
2024/04/23 08:26:42;;;;;;;;;;;;;;;21.33;30.83;98204.47;5178297;27;941;-76
2024/04/23 08:29:07;;;;;;;;;;;;;;;21.16;31.12;98202.81;5178601;27;1212;-76
2024/04/23 08:31:33;;;;;;;;;;;;;;;21.07;31.23;98188.47;5179863;27;1212;-76
2024/04/23 08:33:59;;;;;;;;;;;;;;;21.21;31.00;98185.34;5244373;27;799;-76
2024/04/23 08:36:25;;;;;;;;;;;;;;;21.32;30.80;98180.25;5244355;27;679;-76
2024/04/23 08:38:50;;;;;;;;;;;;;;;21.39;30.76;98184.16;5318309;26;893;-77
2024/04/23 08:41:16;;;;;;;;;;;;;;;21.37;30.82;98180.97;5346527;26;1861;-76
2024/04/23 08:43:52;;;;;;;;;;;;;;;21.28;30.66;98178.72;5317963;26;722;-77
2024/04/23 08:46:17;;;;;;;;;;;;;;;21.43;30.54;98179.22;5289266;26;1236;-77
2024/04/23 08:48:44;;;;;;;;;;;;;;;21.23;30.79;98177.19;5289091;26;1274;-76
2024/04/23 08:51:10;;;;;;;;;;;;;;;21.40;30.37;98174.41;5289315;26;1172;-76
2024/04/23 08:53:35;;;;;;;;;;;;;;;21.28;30.45;98173.84;5346898;26;769;-76
2024/04/23 08:56:02;;;;;;;;;;;;;;;21.24;30.50;98173.16;5277810;27;901;-76
2024/04/23 08:58:28;;;;;;;;;;;;;;;21.52;30.08;98173.75;5249545;27;1075;-76
2024/04/23 09:00:55;;;;;;;;;;;;;;;21.52;29.86;98179.41;5249776;27;802;-76
2024/04/23 09:03:21;;;;;;;;;;;;;;;21.20;30.44;98200.72;5226771;27;1834;-76
2024/04/23 09:05:46;;;;;;;;;;;;;;;21.20;30.26;98226.19;5283703;27;905;-77
2024/04/23 09:08:14;;;;;;;;;;;;;;;21.17;30.37;98246.84;5283414;27;1058;-77
2024/04/23 09:10:40;;;;;;;;;;;;;;;21.25;30.23;98242.66;5283844;27;756;-76
2024/04/23 09:13:05;;;;;;;;;;;;;;;21.12;30.26;98244.53;5283384;27;777;-76
2024/04/23 09:15:31;;;;;;;;;;;;;;;21.17;30.39;98258.19;5255225;27;1257;-76
2024/04/23 09:17:57;;;;;;;;;;;;;;;21.09;30.27;98251.09;5255134;27;748;-77
2024/04/23 09:20:23;;;;;;;;;;;;;;;21.05;30.51;98256.81;5254822;27;752;-77
2024/04/23 09:22:52;;;;;;;;;;;;;;;21.14;30.14;98259.06;5283236;27;1823;-76
2024/04/23 09:25:17;;;;;;;;;;;;;;;21.17;30.04;98252.53;5282867;27;726;-76
2024/04/23 09:27:43;;;;;;;;;;;;;;;21.30;29.73;98242.16;5314626;26;1194;-77
2024/04/23 09:30:09;;;;;;;;;;;;;;;21.44;30.19;98249.53;5317006;26;966;-76
2024/04/23 09:32:34;;;;;;;;;;;;;;;21.92;30.15;98238.75;5326003;26;749;-77
2024/04/23 09:35:00;;;;;;;;;;;;;;;21.99;30.59;98247.06;5417728;26;725;-76
2024/04/23 09:37:26;;;;;;;;;;;;;;;21.92;31.15;98241.59;5417564;26;1151;-76
2024/04/23 09:39:59;;;;;;;;;;;;;;;21.79;30.87;98242.28;5417675;26;814;-76
2024/04/23 09:42:25;;;;;;;;;;;;;;;21.39;31.30;98230.22;5416019;26;1829;-76
2024/04/23 09:44:51;;;;;;;;;;;;;;;21.41;31.06;98227.00;5357916;26;857;-77
2024/04/23 09:47:16;;;;;;;;;;;;;;;21.38;30.85;98227.84;5387852;26;1045;-77
2024/04/23 09:49:57;;;;;;;;;;;;;;;21.30;31.04;98216.69;5387784;26;1061;-76
2024/04/23 09:52:30;;;;;;;;;;;;;;;21.29;30.95;98222.75;5417524;26;686;-77
2024/04/23 09:54:55;;;;;;;;;;;;;;;21.55;30.55;98218.16;5417182;26;1161;-76
2024/04/23 09:57:21;;;;;;;;;;;;;;;21.55;30.58;98204.00;5417099;26;758;-77
2024/04/23 09:59:46;;;;;;;;;;;;;;;21.36;30.94;98187.88;5387492;26;696;-76
2024/04/23 10:02:12;;;;;;;;;;;;;;;21.35;30.91;98183.44;5417008;26;1825;-76
2024/04/23 10:04:37;;;;;;;;;;;;;;;21.39;30.88;98170.00;5358389;26;1619;-76
2024/04/23 10:07:04;;;;;;;;;;;;;;;21.47;30.93;98162.94;5387529;26;1325;-77
2024/04/23 10:09:32;;;;;;;;;;;;;;;21.29;30.96;98164.09;5385746;26;1232;-77
2024/04/23 10:12:05;;;;;;;;;;;;;;;21.27;31.18;98151.66;5386473;26;833;-76
2024/04/23 10:14:34;;;;;;;;;;;;;;;21.25;30.97;98152.09;5386666;26;754;-76
2024/04/23 10:16:59;;;;;;;;;;;;;;;21.12;31.08;98154.00;5327870;26;1286;-76
2024/04/23 10:19:25;;;;;;;;;;;;;;;21.17;31.18;98144.19;5415534;26;809;-77
2024/04/23 10:21:51;;;;;;;;;;;;;;;21.29;30.82;98137.84;5309683;27;1976;-77
2024/04/23 10:24:17;;;;;;;;;;;;;;;21.36;30.72;98139.75;5281868;27;792;-76
2024/04/23 10:26:44;;;;;;;;;;;;;;;21.35;30.80;98132.47;5253785;27;1192;-76
2024/04/23 10:29:10;;;;;;;;;;;;;;;21.40;30.51;98117.81;5282395;27;698;-76
2024/04/23 10:31:36;;;;;;;;;;;;;;;21.19;30.84;98119.06;5209235;27;879;-76
2024/04/23 10:34:02;;;;;;;;;;;;;;;21.19;30.63;98108.59;5181934;27;764;-76
2024/04/23 10:36:28;;;;;;;;;;;;;;;21.38;30.28;98114.63;5182115;27;791;-77
2024/04/23 10:38:53;;;;;;;;;;;;;;;21.18;30.47;98104.13;5155086;27;704;-76
2024/04/23 10:41:19;;;;;;;;;;;;;;;21.46;30.45;98110.41;5182225;27;1860;-77
2024/04/23 10:43:45;;;;;;;;;;;;;;;21.71;30.66;98096.44;5242441;27;739;-77
2024/04/23 10:46:11;;;;;;;;;;;;;;;22.14;30.47;98083.19;5242515;27;716;-77
2024/04/23 10:48:37;;;;;;;;;;;;;;;22.15;30.90;98071.41;5242438;27;781;-77
2024/04/23 10:51:03;;;;;;;;;;;;;;;21.76;31.69;98073.22;5242712;27;952;-77
2024/04/23 10:53:35;;;;;;;;;;;;;;;21.58;31.57;98053.06;5294291;27;855;-76
2024/04/23 10:56:00;;;;;;;;;;;;;;;21.57;31.16;98038.13;5245789;27;763;-77
2024/04/23 10:58:26;;;;;;;;;;;;;;;21.58;30.78;98030.41;5217414;27;1194;-76
2024/04/23 11:00:58;;;;;;;;;;;;;;;21.74;30.34;98019.06;5245845;27;768;-77
2024/04/23 11:03:30;;;;;;;;;;;;;;;21.35;30.97;98011.59;5278382;27;1822;-77
2024/04/23 11:05:55;;;;;;;;;;;;;;;21.29;31.31;98011.28;5312976;26;1238;-77
2024/04/23 11:08:21;;;;;;;;;;;;;;;21.35;31.20;98016.44;5312986;27;1287;-76
2024/04/23 11:10:47;;;;;;;;;;;;;;;21.50;30.79;98007.16;5313458;27;958;-77
2024/04/23 11:13:29;;;;;;;;;;;;;;;21.55;30.86;98000.97;5312852;27;1581;-77
2024/04/23 11:15:55;;;;;;;;;;;;;;;21.37;31.18;98000.63;5312946;27;750;-76
2024/04/23 11:18:25;;;;;;;;;;;;;;;21.60;30.81;97996.78;5313282;27;783;-77
2024/04/23 11:20:54;;;;;;;;;;;;;;;21.44;30.93;98006.09;5312995;26;720;-77
2024/04/23 11:23:20;;;;;;;;;;;;;;;21.32;31.03;98004.78;5313198;27;1860;-77
2024/04/23 11:25:45;;;;;;;;;;;;;;;21.10;31.69;98009.34;5313060;27;1051;-77
2024/04/23 11:28:11;;;;;;;;;;;;;;;21.13;31.54;98002.78;5346833;26;828;-77
2024/04/23 11:30:37;;;;;;;;;;;;;;;21.36;31.17;97992.59;5347770;26;857;-77
2024/04/23 11:33:03;;;;;;;;;;;;;;;21.26;30.81;98000.88;5347391;26;829;-77
2024/04/23 11:35:30;;;;;;;;;;;;;;;21.24;31.16;98020.34;5355259;26;1274;-77
2024/04/23 11:37:56;;;;;;;;;;;;;;;21.48;30.57;98023.78;5384359;26;837;-76
2024/04/23 11:40:22;;;;;;;;;;;;;;;21.32;30.87;98016.09;5385459;26;773;-77
2024/04/23 11:42:47;;;;;;;;;;;;;;;21.44;30.66;98013.78;5354568;26;1851;-76
2024/04/23 11:45:13;;;;;;;;;;;;;;;21.56;30.37;98024.41;5383880;26;828;-76
2024/04/23 11:47:38;;;;;;;;;;;;;;;21.14;31.07;98015.72;5383774;26;813;-76
2024/04/23 11:50:05;;;;;;;;;;;;;;;21.14;30.93;98015.72;5383457;26;761;-77
2024/04/23 11:52:31;;;;;;;;;;;;;;;21.40;30.44;98011.06;5417457;26;943;-77
2024/04/23 11:54:56;;;;;;;;;;;;;;;21.25;30.56;98016.25;5417450;26;872;-76
2024/04/23 11:57:22;;;;;;;;;;;;;;;21.12;30.97;98012.53;5387996;26;896;-76
2024/04/23 11:59:50;;;;;;;;;;;;;;;21.12;30.90;98004.03;5388132;26;1046;-76
2024/04/23 12:02:16;;;;;;;;;;;;;;;21.20;30.69;97993.34;5418021;26;1825;-76
2024/04/23 12:04:42;;;;;;;;;;;;;;;21.19;30.64;98003.88;5357396;26;1105;-77
2024/04/23 12:07:09;;;;;;;;;;;;;;;21.24;30.51;98003.34;5358584;26;1196;-76
2024/04/23 12:09:35;;;;;;;;;;;;;;;21.52;30.05;98006.72;5387911;26;714;-76
2024/04/23 12:12:00;;;;;;;;;;;;;;;21.39;30.28;98003.00;5358766;26;719;-76
2024/04/23 12:14:28;;;;;;;;;;;;;;;21.26;30.30;97995.22;5417644;26;694;-77
2024/04/23 12:16:54;;;;;;;;;;;;;;;21.29;30.46;97982.19;5359143;26;733;-76
2024/04/23 12:19:19;;;;;;;;;;;;;;;21.36;30.29;97975.59;5329715;26;1215;-77
2024/04/23 12:21:45;;;;;;;;;;;;;;;21.13;30.40;97966.00;5381747;26;1825;-77
2024/04/23 12:24:14;;;;;;;;;;;;;;;21.29;30.33;97980.16;5325462;26;920;-76
2024/04/23 12:26:40;;;;;;;;;;;;;;;21.19;30.36;97972.75;5289785;26;1264;-76
2024/04/23 12:29:05;;;;;;;;;;;;;;;21.42;30.13;97962.50;5289554;26;1126;-77
2024/04/23 12:31:31;;;;;;;;;;;;;;;21.24;30.15;97972.22;5289473;26;1110;-76
2024/04/23 12:33:57;;;;;;;;;;;;;;;21.03;30.67;97986.88;5318042;26;817;-77
2024/04/23 12:36:23;;;;;;;;;;;;;;;21.22;30.42;97963.38;5289660;26;1137;-76
2024/04/23 12:38:49;;;;;;;;;;;;;;;21.41;30.11;97983.56;5289065;26;1239;-77
2024/04/23 12:41:19;;;;;;;;;;;;;;;21.41;30.10;97973.03;5318285;26;1852;-76
2024/04/23 12:43:45;;;;;;;;;;;;;;;21.39;30.09;97974.69;5249638;27;820;-76
2024/04/23 12:46:14;;;;;;;;;;;;;;;21.18;30.46;97964.69;5278396;27;963;-77
2024/04/23 12:48:40;;;;;;;;;;;;;;;21.12;30.48;97960.81;5194307;27;1197;-76
2024/04/23 12:51:05;;;;;;;;;;;;;;;21.09;30.55;97951.19;5222333;27;839;-77
2024/04/23 12:53:31;;;;;;;;;;;;;;;21.16;30.46;97928.34;5276715;27;778;-76
2024/04/23 12:55:56;;;;;;;;;;;;;;;21.24;30.37;97918.47;5284018;27;854;-76
2024/04/23 12:58:25;;;;;;;;;;;;;;;21.25;30.42;97896.63;5283114;27;753;-76
2024/04/23 13:00:50;;;;;;;;;;;;;;;21.02;30.66;97877.81;5283248;27;1115;-77
2024/04/23 13:03:16;;;;;;;;;;;;;;;21.39;30.20;97879.25;5282892;27;1853;-76
2024/04/23 13:05:45;;;;;;;;;;;;;;;21.07;30.49;97869.56;5255553;27;842;-77